createdAt,value
2018-02-02T00:01:46.420Z,5.53
2018-02-02T00:04:18.946Z,5.28
2018-02-02T00:06:51.439Z,5.04
2018-02-02T00:09:23.961Z,5.04
2018-02-02T00:11:57.409Z,5.08
2018-02-02T00:14:29.926Z,5.18
2018-02-02T00:17:02.426Z,5.28
2018-02-02T00:19:35.005Z,5.16
2018-02-02T00:22:07.530Z,5.18
2018-02-02T00:24:40.048Z,5.38
2018-02-02T00:27:12.553Z,5.79
2018-02-02T00:29:45.119Z,5.95
2018-02-02T00:32:18.659Z,5.81
2018-02-02T00:34:51.175Z,5.84
2018-02-02T00:37:23.673Z,5.83
2018-02-02T00:39:56.203Z,5.81
2018-02-02T00:42:28.696Z,5.78
2018-02-02T00:45:01.221Z,5.64
2018-02-02T00:47:33.729Z,5.72
2018-02-02T00:50:06.239Z,5.85
2018-02-02T00:52:38.730Z,5.74
2018-02-02T00:55:11.242Z,5.89
2018-02-02T00:57:43.742Z,5.89
2018-02-02T01:00:16.326Z,6.00
2018-02-02T01:02:48.823Z,6.01
2018-02-02T01:05:21.341Z,6.13
2018-02-02T01:07:53.848Z,6.12
2018-02-02T01:10:26.368Z,5.99
2018-02-02T01:12:58.863Z,5.98
2018-02-02T01:15:31.372Z,5.93
2018-02-02T01:18:03.876Z,5.86
2018-02-02T01:20:36.391Z,5.71
2018-02-02T01:23:08.912Z,5.88
2018-02-02T01:25:41.438Z,6.10
2018-02-02T01:28:13.926Z,6.03
2018-02-02T01:30:46.451Z,5.85
2018-02-02T01:33:18.954Z,5.69
2018-02-02T01:35:51.465Z,5.98
2018-02-02T01:38:24.111Z,6.20
2018-02-02T01:40:56.627Z,6.16
2018-02-02T01:43:29.124Z,5.98
2018-02-02T01:46:01.644Z,6.02
2018-02-02T01:48:34.135Z,6.01
2018-02-02T01:51:06.653Z,6.26
2018-02-02T01:53:39.179Z,6.18
2018-02-02T01:56:11.695Z,6.28
2018-02-02T01:58:44.193Z,6.31
2018-02-02T02:01:17.499Z,6.30
2018-02-02T02:03:49.991Z,6.27
2018-02-02T02:06:22.513Z,6.23
2018-02-02T02:08:55.018Z,6.38
2018-02-02T02:11:27.526Z,6.29
2018-02-02T02:14:00.033Z,6.43
2018-02-02T02:16:32.559Z,6.23
2018-02-02T02:19:05.125Z,6.14
2018-02-02T02:21:37.643Z,6.29
2018-02-02T02:24:10.164Z,6.29
2018-02-02T02:26:42.681Z,6.34
2018-02-02T02:29:15.198Z,6.36
2018-02-02T02:31:48.649Z,6.18
2018-02-02T02:34:21.163Z,6.21
2018-02-02T02:36:53.670Z,6.25
2018-02-02T02:39:26.182Z,6.14
2018-02-02T02:41:58.680Z,6.08
2018-02-02T02:44:31.206Z,5.89
2018-02-02T02:47:03.718Z,6.16
2018-02-02T02:49:36.264Z,6.30
2018-02-02T02:52:08.768Z,6.26
2018-02-02T02:54:41.316Z,6.26
2018-02-02T02:57:13.802Z,6.27
2018-02-02T02:59:46.362Z,6.19
2018-02-02T03:02:19.489Z,6.13
2018-02-02T03:04:52.064Z,5.92
2018-02-02T03:07:24.578Z,5.98
2018-02-02T03:09:57.092Z,6.05
2018-02-02T03:12:29.579Z,6.23
2018-02-02T03:15:02.092Z,6.29
2018-02-02T03:17:34.599Z,6.24
2018-02-02T03:20:07.125Z,6.31
2018-02-02T03:22:39.644Z,6.45
2018-02-02T03:25:12.157Z,6.33
2018-02-02T03:27:44.659Z,6.59
2018-02-02T03:30:17.546Z,6.48
2018-02-02T03:32:50.037Z,6.43
2018-02-02T03:35:22.547Z,6.26
2018-02-02T03:37:55.058Z,6.31
2018-02-02T03:40:27.564Z,6.48
2018-02-02T03:43:00.083Z,6.63
2018-02-02T03:45:32.583Z,6.55
2018-02-02T03:48:05.081Z,6.61
2018-02-02T03:50:37.603Z,6.42
2018-02-02T03:53:10.096Z,6.53
2018-02-02T03:55:42.619Z,6.34
2018-02-02T03:58:15.123Z,6.43
2018-02-02T04:00:47.647Z,6.28
2018-02-02T04:03:20.153Z,6.41
2018-02-02T04:05:52.683Z,6.51
2018-02-02T04:08:25.176Z,6.49
2018-02-02T04:10:57.692Z,6.53
2018-02-02T04:13:30.188Z,6.59
2018-02-02T04:16:02.703Z,6.50
2018-02-02T04:18:35.266Z,6.47
2018-02-02T04:21:07.811Z,6.40
2018-02-02T04:23:40.302Z,6.33
2018-02-02T04:26:12.818Z,6.55
2018-02-02T04:28:45.316Z,6.55
2018-02-02T04:31:18.589Z,6.53
2018-02-02T04:33:51.102Z,6.54
2018-02-02T04:36:23.646Z,6.63
2018-02-02T04:38:56.169Z,6.52
2018-02-02T04:41:28.710Z,6.56
2018-02-02T04:44:01.207Z,6.59
2018-02-02T04:46:33.718Z,6.67
2018-02-02T04:49:06.218Z,6.49
2018-02-02T04:51:38.727Z,6.52
2018-02-02T04:54:11.224Z,6.48
2018-02-02T04:56:43.731Z,6.64
2018-02-02T04:59:16.950Z,6.43
2018-02-02T05:01:49.476Z,6.56
2018-02-02T05:04:21.969Z,6.61
2018-02-02T05:06:54.483Z,6.37
2018-02-02T05:09:27.095Z,6.54
2018-02-02T05:11:59.652Z,6.55
2018-02-02T05:14:32.160Z,6.50
2018-02-02T05:17:04.690Z,6.42
2018-02-02T05:19:37.237Z,6.50
2018-02-02T05:22:09.770Z,6.63
2018-02-02T05:24:42.275Z,6.64
2018-02-02T05:27:14.819Z,6.58
2018-02-02T05:29:47.409Z,6.59
2018-02-02T05:32:19.964Z,6.50
2018-02-02T05:34:52.458Z,6.34
2018-02-02T05:37:24.979Z,6.49
2018-02-02T05:39:57.494Z,6.39
2018-02-02T05:42:30.020Z,6.33
2018-02-02T05:45:02.537Z,6.52
2018-02-02T05:47:35.075Z,6.38
2018-02-02T05:50:07.584Z,6.35
2018-02-02T05:52:40.100Z,6.55
2018-02-02T05:55:12.617Z,6.74
2018-02-02T05:57:45.137Z,6.71
2018-02-02T06:00:17.651Z,6.71
2018-02-02T06:02:50.197Z,6.81
2018-02-02T06:05:22.708Z,6.81
2018-02-02T06:07:55.250Z,6.78
2018-02-02T06:10:27.767Z,6.83
2018-02-02T06:13:00.298Z,6.86
2018-02-02T06:15:32.809Z,6.79
2018-02-02T06:18:05.324Z,6.83
2018-02-02T06:20:37.856Z,6.75
2018-02-02T06:23:10.382Z,6.68
2018-02-02T06:25:42.897Z,6.63
2018-02-02T06:28:15.463Z,6.46
2018-02-02T06:30:47.988Z,6.33
2018-02-02T06:33:20.525Z,6.30
2018-02-02T06:35:53.047Z,6.17
2018-02-02T06:38:25.590Z,6.38
2018-02-02T06:40:58.793Z,6.39
2018-02-02T06:43:31.310Z,6.38
2018-02-02T06:46:03.853Z,6.28
2018-02-02T06:48:36.371Z,6.19
2018-02-02T06:51:08.935Z,6.25
2018-02-02T06:53:41.446Z,6.16
2018-02-02T06:56:13.984Z,6.25
2018-02-02T06:58:46.507Z,5.95
2018-02-02T07:01:19.036Z,6.04
2018-02-02T07:03:51.550Z,6.18
2018-02-02T07:06:24.076Z,6.23
2018-02-02T07:08:56.796Z,6.14
2018-02-02T07:11:29.327Z,6.16
2018-02-02T07:14:01.843Z,6.36
2018-02-02T07:16:34.353Z,6.38
2018-02-02T07:19:06.891Z,6.03
2018-02-02T07:21:39.419Z,6.23
2018-02-02T07:24:11.918Z,6.11
2018-02-02T07:26:44.460Z,6.03
2018-02-02T07:29:16.953Z,6.24
2018-02-02T07:31:49.480Z,5.96
2018-02-02T07:34:21.985Z,6.03
2018-02-02T07:36:54.944Z,6.10
2018-02-02T07:39:29.918Z,6.17
2018-02-02T07:42:02.455Z,6.05
2018-02-02T07:44:34.955Z,6.16
2018-02-02T07:47:07.496Z,6.21
2018-02-02T07:49:40.013Z,6.40
2018-02-02T07:52:12.551Z,6.32
2018-02-02T07:54:45.080Z,6.37
2018-02-02T07:57:17.613Z,6.38
2018-02-02T07:59:50.129Z,6.20
2018-02-02T08:02:22.661Z,6.44
2018-02-02T08:04:55.165Z,6.47
2018-02-02T08:07:27.725Z,6.44
2018-02-02T08:10:00.232Z,6.64
2018-02-02T08:12:32.760Z,6.87
2018-02-02T08:15:05.283Z,6.65
2018-02-02T08:17:37.814Z,6.59
2018-02-02T08:20:10.311Z,6.83
2018-02-02T08:22:42.850Z,6.76
2018-02-02T08:25:15.386Z,6.79
2018-02-02T08:27:47.944Z,6.65
2018-02-02T08:30:20.476Z,6.76
2018-02-02T08:32:53.004Z,6.76
2018-02-02T08:35:25.524Z,6.50
2018-02-02T08:37:58.630Z,6.18
2018-02-02T08:40:31.130Z,6.52
2018-02-02T08:43:03.661Z,6.55
2018-02-02T08:45:36.206Z,6.53
2018-02-02T08:48:08.724Z,6.54
2018-02-02T08:50:41.238Z,6.31
2018-02-02T08:53:13.764Z,6.04
2018-02-02T08:55:46.269Z,6.32
2018-02-02T08:58:18.800Z,6.35
2018-02-02T09:00:57.701Z,6.27
2018-02-02T09:03:30.226Z,6.36
2018-02-02T09:06:02.757Z,6.35
2018-02-02T09:08:35.313Z,6.41
2018-02-02T09:11:07.838Z,6.49
2018-02-02T09:13:40.387Z,6.59
2018-02-02T09:16:12.892Z,6.80
2018-02-02T09:18:45.417Z,6.84
2018-02-02T09:21:17.969Z,7.00
2018-02-02T09:23:50.508Z,6.72
2018-02-02T09:26:23.033Z,6.67
2018-02-02T09:28:55.539Z,6.40
2018-02-02T09:31:29.145Z,6.53
2018-02-02T09:34:01.682Z,6.64
2018-02-02T09:36:34.190Z,6.40
2018-02-02T09:39:06.718Z,6.60
2018-02-02T09:41:39.212Z,6.51
2018-02-02T09:44:11.775Z,6.48
2018-02-02T09:46:44.290Z,6.47
2018-02-02T09:49:16.843Z,6.66
2018-02-02T09:51:49.353Z,6.54
2018-02-02T09:54:21.889Z,6.40
2018-02-02T09:56:54.388Z,6.49
2018-02-02T09:59:26.943Z,6.66
2018-02-02T10:01:59.452Z,6.84
2018-02-02T10:04:31.976Z,6.71
2018-02-02T10:07:04.485Z,6.92
2018-02-02T10:09:37.032Z,7.08
2018-02-02T10:12:09.577Z,7.15
2018-02-02T10:14:42.093Z,7.03
2018-02-02T10:17:14.626Z,7.08
2018-02-02T10:19:47.149Z,6.99
2018-02-02T10:22:19.681Z,7.16
2018-02-02T10:24:52.215Z,7.24
2018-02-02T10:27:24.771Z,7.40
2018-02-02T10:29:57.368Z,7.21
2018-02-02T10:32:29.958Z,6.91
2018-02-02T10:35:02.483Z,7.02
2018-02-02T10:37:35.006Z,7.07
2018-02-02T10:40:07.516Z,6.97
2018-02-02T10:42:40.059Z,7.13
2018-02-02T10:45:12.588Z,6.85
2018-02-02T10:47:45.145Z,7.07
2018-02-02T10:50:17.652Z,7.06
2018-02-02T10:52:50.212Z,7.18
2018-02-02T10:55:22.732Z,7.43
2018-02-02T10:57:55.886Z,7.39
2018-02-02T11:03:33.173Z,7.44
2018-02-02T11:06:05.694Z,7.38
2018-02-02T11:08:38.224Z,7.16
2018-02-02T11:11:10.723Z,7.26
2018-02-02T11:13:43.266Z,7.28
2018-02-02T11:16:15.798Z,7.23
2018-02-02T11:18:48.349Z,7.34
2018-02-02T11:21:20.869Z,7.20
2018-02-02T11:23:53.384Z,7.09
2018-02-02T11:26:26.904Z,7.20
2018-02-02T11:28:59.452Z,7.33
2018-02-02T11:31:31.963Z,7.34
2018-02-02T11:34:04.525Z,7.71
2018-02-02T11:36:37.033Z,7.98
2018-02-02T11:39:09.578Z,8.08
2018-02-02T11:41:42.128Z,8.29
2018-02-02T11:44:14.660Z,7.73
2018-02-02T11:46:47.183Z,7.82
2018-02-02T11:49:19.736Z,7.79
2018-02-02T11:51:52.325Z,7.85
2018-02-02T11:54:24.808Z,7.58
2018-02-02T11:56:57.422Z,7.62
2018-02-02T11:59:29.939Z,7.35
2018-02-02T12:02:02.469Z,7.61
2018-02-02T12:04:35.007Z,7.62
2018-02-02T12:07:07.531Z,7.84
2018-02-02T12:09:40.067Z,7.60
2018-02-02T12:12:12.572Z,7.77
2018-02-02T12:14:45.089Z,7.74
2018-02-02T12:17:17.611Z,7.67
2018-02-02T12:19:50.148Z,7.93
2018-02-02T12:22:28.247Z,7.93
2018-02-02T12:25:05.356Z,7.86
2018-02-02T12:27:43.539Z,8.06
2018-02-02T12:33:26.895Z,7.74
2018-02-02T12:36:02.272Z,7.90
2018-02-02T12:38:34.917Z,7.85
2018-02-02T12:41:07.476Z,7.60
2018-02-02T12:43:39.989Z,7.81
2018-02-02T12:46:12.537Z,7.58
2018-02-02T12:48:45.078Z,7.88
2018-02-02T12:51:18.386Z,7.73
2018-02-02T12:53:50.894Z,7.91
2018-02-02T12:56:23.455Z,7.72
2018-02-02T12:58:56.045Z,7.83
2018-02-02T13:01:28.614Z,7.67
2018-02-02T13:04:01.123Z,7.64
2018-02-02T13:06:33.656Z,7.73
2018-02-02T13:09:06.174Z,7.75
2018-02-02T13:11:38.697Z,7.88
2018-02-02T13:14:13.174Z,7.93
2018-02-02T13:16:45.731Z,7.88
2018-02-02T13:19:19.492Z,7.50
2018-02-02T13:21:52.016Z,7.80
2018-02-02T13:24:24.528Z,7.82
2018-02-02T13:26:57.097Z,8.07
2018-02-02T13:29:29.652Z,8.10
2018-02-02T13:32:02.196Z,8.10
2018-02-02T13:34:34.709Z,8.16
2018-02-02T13:37:07.250Z,8.00
2018-02-02T13:39:39.795Z,7.97
2018-02-02T13:42:12.328Z,8.03
2018-02-02T13:44:44.872Z,8.13
2018-02-02T13:47:17.704Z,8.19
2018-02-02T13:49:50.272Z,8.29
2018-02-02T13:52:22.769Z,8.25
2018-02-02T13:54:55.291Z,8.28
2018-02-02T13:57:27.794Z,8.32
2018-02-02T14:00:00.330Z,8.28
2018-02-02T14:02:32.834Z,8.30
2018-02-02T14:05:05.710Z,8.18
2018-02-02T14:07:38.620Z,8.14
2018-02-02T14:10:11.526Z,8.13
2018-02-02T14:12:44.024Z,8.15
2018-02-02T14:15:18.719Z,7.96
2018-02-02T14:17:51.583Z,7.89
2018-02-02T14:20:24.810Z,7.90
2018-02-02T14:22:57.442Z,7.95
2018-02-02T14:25:29.984Z,7.97
2018-02-02T14:28:02.481Z,7.96
2018-02-02T14:30:35.113Z,8.06
2018-02-02T14:33:07.617Z,8.08
2018-02-02T14:35:40.135Z,8.22
2018-02-02T14:38:12.669Z,8.06
2018-02-02T14:40:45.205Z,8.01
2018-02-02T14:43:18.323Z,8.08
2018-02-02T14:45:50.852Z,8.03
2018-02-02T14:48:23.354Z,8.12
2018-02-02T14:50:55.880Z,8.19
2018-02-02T14:53:28.378Z,8.25
2018-02-02T14:56:00.913Z,8.30
2018-02-02T14:58:33.437Z,8.24
2018-02-02T15:01:05.976Z,8.33
2018-02-02T15:03:38.467Z,8.47
2018-02-02T15:06:11.024Z,8.16
2018-02-02T15:08:43.542Z,8.33
2018-02-02T15:11:16.879Z,8.45
2018-02-02T15:13:49.419Z,8.39
2018-02-02T15:16:21.970Z,8.24
2018-02-02T15:18:54.593Z,8.33
2018-02-02T15:21:27.172Z,8.28
2018-02-02T15:23:59.670Z,8.18
2018-02-02T15:26:32.199Z,8.23
2018-02-02T15:29:04.688Z,8.20
2018-02-02T15:31:37.214Z,8.20
2018-02-02T15:34:09.807Z,8.16
2018-02-02T15:36:42.455Z,8.17
2018-02-02T15:39:14.981Z,8.16
2018-02-02T15:41:47.541Z,8.01
2018-02-02T15:44:20.076Z,8.14
2018-02-02T15:46:52.614Z,8.23
2018-02-02T15:49:25.128Z,8.23
2018-02-02T15:51:57.652Z,8.26
2018-02-02T15:54:30.197Z,8.17
2018-02-02T15:57:02.778Z,8.27
2018-02-02T16:02:26.042Z,8.06
2018-02-02T16:04:58.568Z,7.85
2018-02-02T16:07:31.154Z,7.82
2018-02-02T16:10:03.663Z,7.81
2018-02-02T16:12:36.185Z,7.78
2018-02-02T16:15:08.999Z,7.90
2018-02-02T16:17:41.541Z,7.94
2018-02-02T16:20:14.043Z,8.03
2018-02-02T16:22:46.654Z,8.01
2018-02-02T16:25:19.161Z,7.99
2018-02-02T16:27:51.708Z,8.03
2018-02-02T16:30:24.252Z,7.99
2018-02-02T16:32:56.782Z,7.97
2018-02-02T16:35:29.310Z,7.94
2018-02-02T16:38:01.851Z,7.86
2018-02-02T16:40:34.345Z,7.87
2018-02-02T16:43:06.878Z,7.88
2018-02-02T16:45:47.659Z,7.83
2018-02-02T16:48:20.183Z,7.82
2018-02-02T16:50:52.704Z,7.85
2018-02-02T16:53:25.226Z,7.84
2018-02-02T16:55:57.751Z,7.68
2018-02-02T16:58:30.323Z,7.76
2018-02-02T17:01:02.864Z,7.73
2018-02-02T17:03:35.377Z,7.76
2018-02-02T17:06:07.899Z,7.76
2018-02-02T17:08:40.460Z,7.79
2018-02-02T17:11:13.026Z,7.78
2018-02-02T17:13:45.536Z,7.67
2018-02-02T17:16:18.083Z,7.72
2018-02-02T17:18:50.594Z,7.69
2018-02-02T17:21:23.155Z,7.68
2018-02-02T17:23:55.672Z,7.61
2018-02-02T17:26:28.200Z,7.67
2018-02-02T17:29:00.758Z,7.67
2018-02-02T17:31:34.657Z,7.61
2018-02-02T17:34:07.174Z,7.58
2018-02-02T17:36:39.706Z,7.67
2018-02-02T17:39:13.296Z,7.70
2018-02-02T17:41:45.811Z,7.73
2018-02-02T17:44:19.149Z,7.88
2018-02-02T17:46:51.727Z,7.80
2018-02-02T17:49:24.242Z,7.84
2018-02-02T17:51:56.827Z,7.69
2018-02-02T17:54:29.385Z,7.57
2018-02-02T17:57:01.926Z,7.39
2018-02-02T17:59:34.428Z,7.46
2018-02-02T18:02:08.558Z,7.53
2018-02-02T18:04:43.154Z,7.64
2018-02-02T18:07:15.673Z,7.61
2018-02-02T18:09:48.357Z,7.57
2018-02-02T18:12:20.906Z,7.56
2018-02-02T18:14:53.560Z,7.61
2018-02-02T18:17:26.103Z,7.49
2018-02-02T18:19:58.803Z,7.47
2018-02-02T18:22:31.330Z,7.60
2018-02-02T18:25:03.830Z,7.71
2018-02-02T18:27:36.343Z,7.30
2018-02-02T18:30:08.878Z,7.46
2018-02-02T18:32:41.432Z,7.55
2018-02-02T18:35:13.983Z,7.29
2018-02-02T18:37:54.813Z,7.21
2018-02-02T18:40:29.624Z,7.28
2018-02-02T18:43:02.247Z,7.51
2018-02-02T18:45:34.754Z,7.63
2018-02-02T18:48:07.272Z,7.68
2018-02-02T18:50:39.825Z,7.53
2018-02-02T18:53:12.594Z,7.72
2018-02-02T18:55:45.162Z,7.79
2018-02-02T18:58:17.959Z,7.87
2018-02-02T19:00:50.592Z,7.95
2018-02-02T19:03:24.257Z,7.96
2018-02-02T19:05:56.873Z,7.96
2018-02-02T19:08:30.495Z,7.98
2018-02-02T19:11:03.161Z,8.03
2018-02-02T19:13:35.706Z,8.03
2018-02-02T19:16:08.271Z,8.04
2018-02-02T19:18:41.809Z,7.96
2018-02-02T19:21:14.402Z,7.93
2018-02-02T19:23:47.229Z,7.99
2018-02-02T19:26:19.766Z,8.00
2018-02-02T19:28:52.338Z,8.04
2018-02-02T19:31:24.850Z,8.01
2018-02-02T19:33:57.356Z,8.00
2018-02-02T19:36:30.382Z,8.03
2018-02-02T19:39:02.906Z,8.00
2018-02-02T19:41:35.404Z,7.89
2018-02-02T19:44:07.937Z,7.83
2018-02-02T19:46:40.449Z,7.88
2018-02-02T19:49:13.012Z,7.79
2018-02-02T19:51:45.499Z,7.72
2018-02-02T19:54:18.036Z,7.70
2018-02-02T19:56:50.552Z,7.74
2018-02-02T19:59:23.151Z,7.71
2018-02-02T20:01:55.663Z,7.77
2018-02-02T20:04:28.749Z,7.71
2018-02-02T20:07:01.253Z,7.69
2018-02-02T20:09:40.111Z,7.68
2018-02-02T20:12:12.691Z,7.63
2018-02-02T20:14:45.248Z,7.54
2018-02-02T20:17:17.831Z,7.45
2018-02-02T20:19:50.633Z,7.37
2018-02-02T20:22:25.148Z,7.34
2018-02-02T20:24:59.274Z,7.34
2018-02-02T20:27:31.879Z,7.42
2018-02-02T20:30:04.396Z,7.39
2018-02-02T20:32:37.045Z,7.36
2018-02-02T20:35:09.556Z,7.34
2018-02-02T20:37:42.438Z,7.33
2018-02-02T20:40:14.997Z,7.27
2018-02-02T20:42:47.718Z,7.25
2018-02-02T20:45:20.483Z,7.31
2018-02-02T20:47:53.267Z,7.36
2018-02-02T20:50:26.109Z,7.46
2018-02-02T20:53:00.611Z,7.47
2018-02-02T20:55:33.548Z,7.51
2018-02-02T20:58:07.302Z,7.44
2018-02-02T21:00:40.328Z,7.36
2018-02-02T21:03:14.132Z,7.34
2018-02-02T21:05:46.898Z,7.40
2018-02-02T21:08:19.964Z,7.41
2018-02-02T21:10:53.145Z,7.44
2018-02-02T21:13:26.045Z,7.48
2018-02-02T21:15:58.921Z,7.33
2018-02-02T21:18:35.040Z,7.38
2018-02-02T21:21:07.542Z,7.32
2018-02-02T21:23:40.052Z,7.29
2018-02-02T21:26:12.558Z,7.30
2018-02-02T21:28:45.077Z,7.26
2018-02-02T21:31:17.629Z,7.33
2018-02-02T21:33:50.138Z,7.34
2018-02-02T21:36:22.643Z,7.31
2018-02-02T21:38:55.161Z,7.29
2018-02-02T21:41:29.245Z,7.26
2018-02-02T21:44:01.828Z,7.31
2018-02-02T21:46:34.401Z,7.28
2018-02-02T21:49:06.921Z,7.28
2018-02-02T21:51:39.700Z,7.23
2018-02-02T21:54:12.247Z,7.18
2018-02-02T21:56:44.813Z,7.16
2018-02-02T21:59:17.385Z,7.20
2018-02-02T22:01:49.917Z,7.14
2018-02-02T22:04:22.453Z,7.23
2018-02-02T22:06:54.953Z,7.16
2018-02-02T22:09:27.475Z,7.14
2018-02-02T22:12:00.152Z,7.04
2018-02-02T22:14:32.699Z,7.02
2018-02-02T22:17:05.212Z,7.08
2018-02-02T22:19:37.728Z,7.08
2018-02-02T22:22:10.223Z,7.09
2018-02-02T22:24:42.753Z,7.11
2018-02-02T22:27:15.308Z,7.08
2018-02-02T22:29:47.846Z,7.17
2018-02-02T22:32:20.359Z,7.05
2018-02-02T22:34:52.975Z,7.01
2018-02-02T22:37:25.519Z,7.02
2018-02-02T22:39:58.029Z,7.04
2018-02-02T22:42:30.540Z,7.01
2018-02-02T22:45:03.045Z,6.96
2018-02-02T22:47:35.554Z,6.90
2018-02-02T22:50:08.086Z,6.93
2018-02-02T22:52:40.594Z,6.98
2018-02-02T22:55:13.119Z,6.91
2018-02-02T22:57:45.630Z,6.95
2018-02-02T23:00:18.176Z,6.90
2018-02-02T23:02:50.685Z,6.99
2018-02-02T23:05:23.230Z,7.01
2018-02-02T23:07:55.722Z,7.07
2018-02-02T23:10:30.396Z,7.07
2018-02-02T23:13:02.924Z,7.08
2018-02-02T23:15:35.469Z,6.98
2018-02-02T23:18:07.999Z,7.07
2018-02-02T23:20:40.490Z,7.05
2018-02-02T23:23:12.992Z,7.00
2018-02-02T23:25:46.362Z,7.10
2018-02-02T23:28:18.894Z,7.15
2018-02-02T23:30:51.387Z,7.02
2018-02-02T23:33:23.959Z,7.00
2018-02-02T23:35:56.478Z,7.00
2018-02-02T23:38:29.012Z,7.07
2018-02-02T23:41:01.646Z,7.14
2018-02-02T23:43:34.280Z,7.12
2018-02-02T23:46:06.773Z,7.14
2018-02-02T23:48:39.281Z,7.18
2018-02-02T23:51:11.779Z,7.16
2018-02-02T23:53:45.177Z,7.07
2018-02-02T23:56:17.700Z,7.03
2018-02-02T23:58:50.227Z,6.85
